»·PEaware :: N973SE F70-L52

N973SE :: F70-L52

FLIGHT INFORMATION

Flight Status: Arrived
Operator: Privately registered:
United States
More flights under this callsign
Pilot: Stig E. (4778)
Aircraft: CESSNA 310
(C310)
More flights by this aircraft type
Origin: F70 French Valley
United States
Destination: L52 Oceano Co
United States
More flights between these airports :: More routes between these airports
Route: FLW GMN KBNG ECULU
File this flight plan on PilotEdge
Remarks:
Altitude:
(Current/Filed)
14,500ft
Speed:
(Current/Filed)
170kts
Departed: 08-Jan-19 10:56 PM
Arrived: 09-Jan-19 12:12 AM
Distance/Time
Traveled:
196nm/1:16
Distance/Time
To Go:
Arrived

Flight Plot

Page will automatically refresh every two minutes.

Flight plan parsing failed; only flown route is shown


Map Options




Map Legend


Flown Route
Filed Route
Departure Airport
Arrival Airport
Navaid (VOR, NDB)
Fix

Horizontal Profiles

Position Reports

Time Latitude Longitude Heading Altitude Ground
Speed
08-Jan-19 22:49 33.572203 -117.130101 103 1354ft 0kts
08-Jan-19 22:50 33.572203 -117.130101 103 1354ft 0kts
08-Jan-19 22:51 33.571303 -117.130017 191 1353ft 12kts
08-Jan-19 22:52 33.566576 -117.131359 199 1353ft 12kts
08-Jan-19 22:53 33.566311 -117.131158 100 1353ft 0kts
08-Jan-19 22:54 33.566311 -117.131158 100 1353ft 0kts
08-Jan-19 22:55 33.576489 -117.127832 12 1502ft 116kts
08-Jan-19 22:56 33.612047 -117.118551 13 2536ft 138kts
08-Jan-19 22:57 33.649262 -117.108481 11 3534ft 137kts
08-Jan-19 22:58 33.686257 -117.098721 10 4532ft 136kts
08-Jan-19 22:59 33.723726 -117.088782 12 5547ft 148kts
08-Jan-19 23:00 33.757132 -117.052164 41 6579ft 173kts
08-Jan-19 23:01 33.791886 -117.010110 41 7585ft 181kts
08-Jan-19 23:02 33.828040 -116.966312 41 8586ft 188kts
08-Jan-19 23:03 33.865310 -116.921106 42 9588ft 194kts
08-Jan-19 23:04 33.903794 -116.874364 44 10598ft 199kts
08-Jan-19 23:05 33.940724 -116.885050 284 11626ft 171kts
08-Jan-19 23:06 33.962354 -116.937701 290 12649ft 179kts
08-Jan-19 23:07 33.986134 -116.990719 289 13669ft 181kts
08-Jan-19 23:08 34.010349 -117.044683 289 14511ft 191kts
08-Jan-19 23:09 34.037335 -117.104776 290 14511ft 211kts
08-Jan-19 23:10 34.065745 -117.167657 290 14511ft 214kts
08-Jan-19 23:11 34.094037 -117.230008 289 14510ft 208kts
08-Jan-19 23:12 34.121309 -117.290952 289 14504ft 205kts
08-Jan-19 23:13 34.148339 -117.351580 289 14505ft 205kts
08-Jan-19 23:14 34.175268 -117.412095 289 14503ft 205kts
08-Jan-19 23:15 34.202178 -117.472671 289 14501ft 205kts
08-Jan-19 23:16 34.229102 -117.533383 289 14498ft 205kts
08-Jan-19 23:17 34.255925 -117.593971 289 14496ft 205kts
08-Jan-19 23:18 34.282730 -117.654651 289 14245ft 204kts
08-Jan-19 23:19 34.309311 -117.714932 289 13746ft 202kts
08-Jan-19 23:20 34.335725 -117.774922 289 13246ft 201kts
08-Jan-19 23:21 34.362081 -117.834874 290 12744ft 201kts
08-Jan-19 23:22 34.388028 -117.893961 290 12504ft 198kts
08-Jan-19 23:23 34.413864 -117.952904 290 12512ft 198kts
08-Jan-19 23:24 34.439631 -118.011812 290 12520ft 197kts
08-Jan-19 23:25 34.465251 -118.070490 290 12525ft 197kts
08-Jan-19 23:26 34.490941 -118.129430 290 12524ft 197kts
08-Jan-19 23:27 34.516570 -118.188330 290 12522ft 197kts
08-Jan-19 23:28 34.542156 -118.247230 290 12523ft 197kts
08-Jan-19 23:29 34.567768 -118.306301 290 12490ft 198kts
08-Jan-19 23:30 34.593276 -118.365217 290 12485ft 197kts
08-Jan-19 23:31 34.618782 -118.424240 290 12480ft 197kts
08-Jan-19 23:32 34.644243 -118.483263 290 12478ft 197kts
08-Jan-19 23:33 34.669656 -118.542274 290 12478ft 197kts
08-Jan-19 23:34 34.694865 -118.600928 290 12418ft 198kts
08-Jan-19 23:35 34.719910 -118.659311 290 11916ft 196kts
08-Jan-19 23:36 34.744932 -118.717713 289 11431ft 193kts
08-Jan-19 23:37 34.770156 -118.776719 290 10943ft 199kts
08-Jan-19 23:38 34.795845 -118.836884 290 10471ft 201kts
08-Jan-19 23:39 34.815280 -118.897817 280 10451ft 196kts
08-Jan-19 23:40 34.833321 -118.962132 282 10430ft 203kts
08-Jan-19 23:41 34.852239 -119.027261 282 10405ft 205kts
08-Jan-19 23:42 34.871247 -119.092519 282 10389ft 204kts
08-Jan-19 23:43 34.890197 -119.157705 282 10329ft 206kts
08-Jan-19 23:44 34.909306 -119.223579 282 9872ft 205kts
08-Jan-19 23:45 34.928196 -119.288859 283 9485ft 204kts
08-Jan-19 23:46 34.947056 -119.354202 283 9102ft 205kts
08-Jan-19 23:47 34.966093 -119.420286 284 8722ft 207kts
08-Jan-19 23:49 34.985189 -119.486718 284 8346ft 209kts
08-Jan-19 23:50 35.004426 -119.553774 284 7970ft 209kts
08-Jan-19 23:51 35.023443 -119.620232 284 7595ft 207kts
08-Jan-19 23:52 35.042318 -119.686366 283 7217ft 206kts
08-Jan-19 23:53 35.060847 -119.751456 283 6840ft 205kts
08-Jan-19 23:54 35.079470 -119.817043 284 6461ft 205kts
08-Jan-19 23:55 35.092147 -119.881633 251 6436ft 187kts
08-Jan-19 23:56 35.080922 -119.943654 252 6434ft 187kts
08-Jan-19 23:57 35.071618 -120.005011 253 6426ft 172kts
08-Jan-19 23:58 35.063964 -120.059229 254 6290ft 161kts
08-Jan-19 23:59 35.056300 -120.114759 257 5812ft 170kts
09-Jan-19 00:00 35.048538 -120.172027 259 5324ft 172kts
09-Jan-19 00:01 35.040995 -120.227708 263 4832ft 158kts
09-Jan-19 00:02 35.034012 -120.279700 263 4315ft 154kts
09-Jan-19 00:03 35.027056 -120.331224 262 3806ft 154kts
09-Jan-19 00:04 35.020045 -120.382926 262 3300ft 154kts
09-Jan-19 00:05 35.013009 -120.434598 261 2797ft 154kts
09-Jan-19 00:06 35.007714 -120.486258 290 2285ft 154kts
09-Jan-19 00:07 35.029233 -120.531244 301 1795ft 155kts
09-Jan-19 00:07 35.048183 -120.568968 301 1387ft 157kts
09-Jan-19 00:09 35.080710 -120.613252 337 1005ft 145kts
09-Jan-19 00:10 35.105128 -120.645442 353 858ft 118kts
09-Jan-19 00:10 35.102748 -120.624522 122 18ft 91kts
09-Jan-19 00:12 35.100635 -120.621523 303 15ft 10kts
09-Jan-19 00:12 35.101915 -120.623935 300 15ft 10kts
09-Jan-19 00:14 35.103257 -120.624290 213 15ft 0kts

Navigation Log

Ident Type
Flight plan parsing failed, navigation log unavailable